Time;durP1;ratioP1;P1;durP2;ratioP2;P2;SDS_P1;SDS_P2;PMS_P1;PMS_P2;Temp;Humidity;BMP_temperature;BMP_pressure;BME280_temperature;BME280_humidity;BME280_pressure;Samples;Min_cycle;Max_cycle;Signal;HPM_P1;HPM_P2
2024/03/06 00:00:41;;;;;;;0.90;0.90;;;2.90;99.90;;;;;;4423792;32;20532;-64
2024/03/06 00:03:06;;;;;;;3.70;1.95;;;2.80;99.90;;;;;;4422416;32;20080;-64
2024/03/06 00:05:32;;;;;;;2.20;1.58;;;2.70;99.90;;;;;;4424844;32;20061;-64
2024/03/06 00:07:57;;;;;;;1.95;1.58;;;2.60;99.90;;;;;;4419340;32;20528;-63
2024/03/06 00:10:23;;;;;;;1.20;1.05;;;2.70;99.90;;;;;;4422576;32;20077;-61
2024/03/06 00:12:48;;;;;;;0.75;0.65;;;2.70;99.90;;;;;;4422441;32;20524;-66
2024/03/06 00:15:14;;;;;;;3.47;2.40;;;2.80;99.90;;;;;;4411916;32;20074;-62
2024/03/06 00:17:39;;;;;;;0.82;0.82;;;3.00;99.90;;;;;;4421455;32;20093;-64
2024/03/06 00:20:06;;;;;;;4.55;1.42;;;2.90;99.90;;;;;;4426394;32;20129;-65
2024/03/06 00:22:31;;;;;;;1.23;1.10;;;2.80;99.90;;;;;;4408496;32;20454;-65
2024/03/06 00:24:57;;;;;;;0.70;0.70;;;2.70;99.90;;;;;;4424768;32;20085;-66
2024/03/06 00:27:22;;;;;;;0.50;0.50;;;2.70;99.90;;;;;;4419798;32;20481;-66
2024/03/06 00:29:48;;;;;;;0.65;0.65;;;2.60;99.90;;;;;;4423904;32;20077;-66
2024/03/06 00:32:14;;;;;;;0.70;0.70;;;2.60;99.90;;;;;;4410376;32;20729;-66
2024/03/06 00:34:39;;;;;;;0.95;0.90;;;2.70;99.90;;;;;;4421976;32;20073;-66
2024/03/06 00:37:05;;;;;;;1.83;1.25;;;2.80;99.90;;;;;;4421529;32;20076;-66
2024/03/06 00:39:30;;;;;;;8.00;2.40;;;2.90;99.90;;;;;;4422323;32;20088;-66
2024/03/06 00:41:56;;;;;;;5.70;1.50;;;2.90;99.90;;;;;;4424289;32;20115;-65
2024/03/06 00:44:21;;;;;;;0.50;0.50;;;2.80;99.90;;;;;;4419880;32;20097;-65
2024/03/06 00:46:47;;;;;;;0.85;0.85;;;2.70;99.90;;;;;;4421875;32;20128;-65
2024/03/06 00:49:12;;;;;;;0.50;0.50;;;2.80;99.90;;;;;;4422731;32;20543;-65
2024/03/06 00:51:38;;;;;;;1.15;1.05;;;2.60;99.90;;;;;;4423807;32;20073;-65
2024/03/06 00:54:04;;;;;;;1.87;1.20;;;2.50;99.90;;;;;;4422098;32;20077;-63
2024/03/06 00:56:30;;;;;;;1.25;1.15;;;2.50;99.90;;;;;;4420685;32;20168;-63
2024/03/06 00:58:56;;;;;;;2.97;1.90;;;2.60;99.90;;;;;;4421287;32;20052;-63
2024/03/06 01:01:22;;;;;;;0.57;0.57;;;2.70;99.90;;;;;;4422474;32;20077;-63
2024/03/06 01:03:47;;;;;;;0.70;0.70;;;2.70;99.90;;;;;;4424242;32;20074;-66
2024/03/06 01:06:12;;;;;;;0.52;0.52;;;2.70;99.90;;;;;;4424855;32;20509;-66
2024/03/06 01:08:38;;;;;;;1.48;1.37;;;2.60;99.90;;;;;;4425785;32;20069;-66
2024/03/06 01:11:04;;;;;;;2.25;1.00;;;2.60;99.90;;;;;;4413956;32;20081;-65
2024/03/06 01:13:30;;;;;;;1.37;1.27;;;2.70;99.90;;;;;;4425368;32;20567;-63
2024/03/06 01:15:55;;;;;;;0.60;0.60;;;2.60;99.90;;;;;;4424537;32;20132;-64
2024/03/06 01:18:21;;;;;;;0.68;0.68;;;2.60;99.90;;;;;;4427312;32;20081;-63
2024/03/06 01:20:46;;;;;;;0.60;0.60;;;2.60;99.90;;;;;;4423966;32;20131;-63
2024/03/06 01:23:12;;;;;;;0.68;0.68;;;2.60;99.90;;;;;;4424332;32;20433;-63
2024/03/06 01:25:37;;;;;;;0.70;0.68;;;2.70;99.90;;;;;;4423549;32;20101;-61
2024/03/06 01:28:03;;;;;;;2.55;2.10;;;2.70;99.90;;;;;;4423387;32;20081;-63
2024/03/06 01:30:28;;;;;;;0.57;0.57;;;2.70;99.90;;;;;;4421772;32;20090;-64
2024/03/06 01:32:54;;;;;;;0.70;0.70;;;2.70;99.90;;;;;;4423237;32;20077;-63
2024/03/06 01:35:19;;;;;;;12.70;1.40;;;2.70;99.90;;;;;;4425579;32;20438;-62
2024/03/06 01:37:45;;;;;;;3.22;1.98;;;2.70;99.90;;;;;;4423004;32;20077;-64
2024/03/06 01:40:12;;;;;;;1.37;0.80;;;2.70;99.90;;;;;;4427676;32;20093;-62
2024/03/06 01:42:37;;;;;;;3.95;1.62;;;2.60;99.90;;;;;;4425240;32;20560;-62
2024/03/06 01:45:03;;;;;;;0.60;0.60;;;2.70;99.90;;;;;;4424831;32;20089;-62
2024/03/06 01:47:29;;;;;;;0.90;0.90;;;2.70;99.90;;;;;;4425937;32;20065;-63
2024/03/06 01:49:55;;;;;;;1.30;1.20;;;2.80;99.90;;;;;;4424019;32;20516;-63
2024/03/06 01:52:22;;;;;;;1.08;0.98;;;2.80;99.90;;;;;;4425851;32;20077;-64
2024/03/06 01:54:49;;;;;;;0.80;0.80;;;2.80;99.90;;;;;;4426910;32;20082;-63
2024/03/06 01:57:16;;;;;;;1.42;1.30;;;2.80;99.90;;;;;;4421649;32;20351;-62
2024/03/06 01:59:42;;;;;;;7.12;1.95;;;2.80;99.90;;;;;;4424680;32;20097;-62
2024/03/06 02:02:11;;;;;;;0.60;0.60;;;2.70;99.90;;;;;;4425605;32;20481;-62
2024/03/06 02:04:37;;;;;;;0.82;0.77;;;2.70;99.90;;;;;;4424583;32;20077;-62
2024/03/06 02:07:02;;;;;;;0.55;0.55;;;2.70;99.90;;;;;;4422581;32;20468;-65
2024/03/06 02:09:28;;;;;;;0.50;0.50;;;2.70;99.90;;;;;;4426504;32;20077;-63
2024/03/06 02:11:54;;;;;;;1.20;1.12;;;2.70;99.90;;;;;;4425780;32;20065;-63
2024/03/06 02:14:19;;;;;;;0.80;0.80;;;2.70;99.90;;;;;;4424638;32;20072;-65
2024/03/06 02:16:45;;;;;;;1.12;1.05;;;2.70;99.90;;;;;;4422446;32;20509;-62
2024/03/06 02:19:10;;;;;;;0.88;0.77;;;2.70;99.90;;;;;;4425264;32;20142;-64
2024/03/06 02:21:36;;;;;;;1.05;1.00;;;2.70;99.90;;;;;;4425630;32;20065;-63
2024/03/06 02:24:01;;;;;;;0.93;0.75;;;2.60;99.90;;;;;;4423697;32;20192;-63
2024/03/06 02:26:27;;;;;;;3.12;0.70;;;2.70;99.90;;;;;;4423703;32;20119;-63
2024/03/06 02:28:54;;;;;;;0.70;0.70;;;2.60;99.90;;;;;;4410821;32;20089;-61
2024/03/06 02:31:21;;;;;;;0.43;0.43;;;2.60;99.90;;;;;;4426343;32;20502;-64
2024/03/06 02:33:48;;;;;;;1.95;1.33;;;2.50;99.90;;;;;;4424377;32;20664;-64
2024/03/06 02:36:14;;;;;;;1.52;1.42;;;2.40;99.90;;;;;;4422209;32;20069;-65
2024/03/06 02:38:40;;;;;;;1.20;1.17;;;2.30;99.90;;;;;;4423090;32;21161;-64
2024/03/06 02:41:06;;;;;;;6.60;1.33;;;2.40;99.90;;;;;;4421795;32;20486;-63
2024/03/06 02:43:33;;;;;;;1.17;0.77;;;2.40;99.90;;;;;;4425459;32;20537;-63
2024/03/06 02:45:58;;;;;;;1.50;1.35;;;2.40;99.90;;;;;;4419047;32;20076;-64
2024/03/06 02:48:24;;;;;;;0.40;0.40;;;2.50;99.90;;;;;;4423902;32;20098;-64
2024/03/06 02:50:49;;;;;;;1.17;1.12;;;2.50;99.90;;;;;;4421596;32;20073;-63
2024/03/06 02:53:15;;;;;;;0.85;0.85;;;2.40;99.90;;;;;;4412676;32;20081;-63
2024/03/06 02:55:40;;;;;;;0.47;0.47;;;2.40;99.90;;;;;;4420816;32;20081;-62
2024/03/06 02:58:05;;;;;;;0.62;0.62;;;2.40;99.90;;;;;;4423019;32;20077;-64
2024/03/06 03:00:31;;;;;;;1.42;1.33;;;2.40;99.90;;;;;;4424517;32;20588;-63
2024/03/06 03:02:57;;;;;;;1.35;1.25;;;2.40;99.90;;;;;;4424061;32;20089;-63
2024/03/06 03:05:23;;;;;;;0.70;0.70;;;2.40;99.90;;;;;;4425507;32;20182;-63
2024/03/06 03:07:49;;;;;;;0.57;0.57;;;2.40;99.90;;;;;;4424105;32;20627;-63
2024/03/06 03:10:14;;;;;;;1.67;1.50;;;2.40;99.90;;;;;;4423635;32;20065;-65
2024/03/06 03:12:40;;;;;;;1.58;1.48;;;2.40;99.90;;;;;;4423073;32;20500;-63
2024/03/06 03:15:06;;;;;;;3.80;1.77;;;2.50;99.90;;;;;;4422366;32;20540;-63
2024/03/06 03:17:33;;;;;;;0.60;0.60;;;2.50;99.90;;;;;;4423724;32;20076;-63
2024/03/06 03:19:59;;;;;;;0.80;0.80;;;2.50;99.90;;;;;;4423843;32;20544;-63
2024/03/06 03:22:24;;;;;;;0.98;0.98;;;2.40;99.90;;;;;;4422967;32;20078;-62
2024/03/06 03:24:50;;;;;;;0.60;0.60;;;2.40;99.90;;;;;;4425357;32;20176;-63
2024/03/06 03:27:16;;;;;;;8.93;1.25;;;2.40;99.90;;;;;;4420339;32;20084;-65
2024/03/06 03:29:41;;;;;;;1.00;1.00;;;2.40;99.90;;;;;;4412137;32;20432;-63
2024/03/06 03:32:07;;;;;;;1.25;1.17;;;2.40;99.90;;;;;;4425506;32;20073;-65
2024/03/06 03:34:34;;;;;;;0.55;0.55;;;2.40;99.90;;;;;;4423220;32;20636;-62
2024/03/06 03:36:59;;;;;;;0.60;0.60;;;2.40;99.90;;;;;;4423699;32;20096;-61
2024/03/06 03:39:27;;;;;;;0.55;0.55;;;2.30;99.90;;;;;;4421132;32;20077;-62
2024/03/06 03:41:52;;;;;;;2.65;0.95;;;2.30;99.90;;;;;;4423249;32;20135;-61
2024/03/06 03:44:19;;;;;;;1.80;1.25;;;2.30;99.90;;;;;;4421640;32;20147;-64
2024/03/06 03:46:45;;;;;;;0.82;0.75;;;2.20;99.90;;;;;;4423905;32;20513;-62
2024/03/06 03:49:10;;;;;;;1.30;1.15;;;2.30;99.90;;;;;;4423036;32;20078;-63
2024/03/06 03:51:37;;;;;;;5.80;1.50;;;2.30;99.90;;;;;;4422742;32;20085;-66
2024/03/06 03:54:03;;;;;;;0.98;0.88;;;2.30;99.90;;;;;;4425188;32;20065;-64
2024/03/06 03:56:28;;;;;;;1.75;1.25;;;2.40;99.90;;;;;;4421546;32;20069;-63
2024/03/06 03:58:55;;;;;;;0.75;0.70;;;2.40;99.90;;;;;;4406487;32;20085;-64
2024/03/06 04:01:21;;;;;;;1.10;1.10;;;2.40;99.90;;;;;;4420215;32;20073;-63
2024/03/06 04:03:47;;;;;;;2.83;1.90;;;2.40;99.90;;;;;;4418592;32;20089;-63
2024/03/06 04:06:12;;;;;;;0.60;0.60;;;2.50;99.90;;;;;;4423141;32;20061;-64
2024/03/06 04:08:38;;;;;;;1.35;1.25;;;2.40;99.90;;;;;;4420385;32;20576;-63
2024/03/06 04:11:04;;;;;;;0.45;0.45;;;2.40;99.90;;;;;;4423250;32;20536;-63
2024/03/06 04:13:29;;;;;;;2.92;2.00;;;2.30;99.90;;;;;;4410176;32;20529;-63
2024/03/06 04:15:55;;;;;;;0.73;0.73;;;2.20;99.90;;;;;;4421594;32;20085;-62
2024/03/06 04:18:21;;;;;;;0.88;0.88;;;2.10;99.90;;;;;;4420812;32;20090;-64
2024/03/06 04:20:46;;;;;;;1.77;1.05;;;2.10;99.90;;;;;;4427786;32;20081;-62
2024/03/06 04:23:12;;;;;;;1.17;1.05;;;2.00;99.90;;;;;;4425088;32;20069;-66
2024/03/06 04:25:39;;;;;;;1.62;1.10;;;2.00;99.90;;;;;;4422203;32;20505;-65
2024/03/06 04:28:07;;;;;;;0.70;0.70;;;2.00;99.90;;;;;;4419298;32;20881;-65
2024/03/06 04:30:33;;;;;;;2.15;1.90;;;2.10;99.90;;;;;;4425046;32;20208;-65
2024/03/06 04:32:58;;;;;;;1.02;1.00;;;2.00;99.90;;;;;;4422852;32;20450;-66
2024/03/06 04:35:24;;;;;;;0.55;0.55;;;2.00;99.90;;;;;;4425119;32;20403;-66
2024/03/06 04:37:49;;;;;;;1.55;1.05;;;2.00;99.90;;;;;;4422746;32;20073;-66
2024/03/06 04:40:17;;;;;;;1.60;1.08;;;2.00;99.90;;;;;;4421698;32;20078;-65
2024/03/06 04:42:45;;;;;;;0.52;0.52;;;1.90;99.90;;;;;;4425524;32;20088;-66
2024/03/06 04:45:14;;;;;;;2.87;1.37;;;1.80;99.90;;;;;;4427368;32;20089;-65
2024/03/06 04:47:40;;;;;;;0.52;0.52;;;1.90;99.90;;;;;;4425469;32;20544;-66
2024/03/06 04:50:10;;;;;;;1.58;1.25;;;1.90;99.90;;;;;;4428953;32;20077;-66
2024/03/06 04:52:36;;;;;;;1.80;1.30;;;1.90;99.90;;;;;;4412672;32;20591;-65
2024/03/06 04:55:02;;;;;;;1.25;1.15;;;1.80;99.90;;;;;;4424688;32;20101;-66
2024/03/06 04:57:28;;;;;;;0.60;0.60;;;1.80;99.90;;;;;;4424845;32;20065;-65
2024/03/06 04:59:53;;;;;;;0.77;0.77;;;1.90;99.90;;;;;;4427955;32;20096;-65
2024/03/06 05:02:19;;;;;;;1.10;1.00;;;1.90;99.90;;;;;;4425252;32;20524;-63
2024/03/06 05:04:46;;;;;;;0.55;0.55;;;1.90;99.90;;;;;;4428127;32;20065;-62
2024/03/06 05:07:13;;;;;;;0.98;0.98;;;2.00;99.90;;;;;;4424680;32;20085;-63
2024/03/06 05:09:39;;;;;;;0.75;0.75;;;1.90;99.90;;;;;;4427748;32;20077;-62
2024/03/06 05:12:05;;;;;;;0.70;0.70;;;1.90;99.90;;;;;;4425980;32;20147;-63
2024/03/06 05:14:31;;;;;;;0.50;0.50;;;1.80;99.90;;;;;;4426977;32;20097;-63
2024/03/06 05:16:56;;;;;;;0.70;0.70;;;1.90;99.90;;;;;;4424795;32;20081;-62
2024/03/06 05:19:22;;;;;;;1.02;1.02;;;1.90;99.90;;;;;;4425186;32;20064;-65
2024/03/06 05:21:47;;;;;;;1.30;1.20;;;2.00;99.90;;;;;;4415804;32;20496;-62
2024/03/06 05:24:12;;;;;;;0.60;0.60;;;2.00;99.90;;;;;;4423216;32;20101;-64
2024/03/06 05:26:38;;;;;;;0.43;0.43;;;2.00;99.90;;;;;;4424548;32;20395;-64
2024/03/06 05:29:04;;;;;;;1.15;0.95;;;1.90;99.90;;;;;;4424401;32;20076;-62
2024/03/06 05:31:29;;;;;;;0.82;0.82;;;1.90;99.90;;;;;;4425614;32;20057;-64
2024/03/06 05:33:55;;;;;;;0.93;0.93;;;1.80;99.90;;;;;;4424085;32;20089;-64
2024/03/06 05:36:20;;;;;;;2.00;1.12;;;1.70;99.90;;;;;;4420334;32;20081;-63
2024/03/06 05:38:47;;;;;;;0.57;0.57;;;1.70;99.90;;;;;;4425318;32;20074;-63
2024/03/06 05:41:14;;;;;;;0.70;0.70;;;1.70;99.90;;;;;;4419312;32;21378;-63
2024/03/06 05:43:40;;;;;;;0.62;0.62;;;1.80;99.90;;;;;;4423091;32;20084;-63
2024/03/06 05:46:06;;;;;;;0.70;0.70;;;1.80;99.90;;;;;;4426317;32;20062;-62
2024/03/06 05:48:32;;;;;;;3.12;1.25;;;1.90;99.90;;;;;;4425459;32;20061;-61
2024/03/06 05:50:58;;;;;;;2.47;1.25;;;1.80;99.90;;;;;;4421962;32;20073;-63
2024/03/06 05:53:23;;;;;;;0.80;0.55;;;1.80;99.90;;;;;;4415550;32;20104;-62
2024/03/06 05:55:50;;;;;;;0.70;0.70;;;1.80;99.90;;;;;;4421468;32;20097;-63
2024/03/06 05:58:16;;;;;;;0.50;0.50;;;1.80;99.90;;;;;;4420957;32;20073;-63
2024/03/06 06:00:42;;;;;;;0.95;0.95;;;1.90;99.90;;;;;;4418576;32;20094;-65
2024/03/06 06:03:09;;;;;;;1.05;1.05;;;1.90;99.90;;;;;;4423477;32;20525;-64
2024/03/06 06:05:36;;;;;;;1.85;1.70;;;1.90;99.90;;;;;;4419969;32;20458;-64
2024/03/06 06:08:02;;;;;;;1.25;1.00;;;2.00;99.90;;;;;;4411697;32;20101;-63
2024/03/06 06:10:28;;;;;;;0.62;0.62;;;2.00;99.90;;;;;;4409076;32;20310;-63
2024/03/06 06:12:53;;;;;;;2.58;1.45;;;2.10;99.90;;;;;;4417663;32;20169;-63
2024/03/06 06:15:20;;;;;;;1.80;1.08;;;2.10;99.90;;;;;;4404469;32;20110;-63
2024/03/06 06:17:45;;;;;;;8.68;2.65;;;2.10;99.90;;;;;;4419590;32;20455;-63
2024/03/06 06:20:14;;;;;;;0.50;0.50;;;2.20;99.90;;;;;;4413056;32;20105;-63
2024/03/06 06:22:41;;;;;;;0.60;0.60;;;2.30;99.90;;;;;;4407199;32;20154;-63
2024/03/06 06:25:07;;;;;;;0.60;0.60;;;2.30;99.90;;;;;;4402061;32;20093;-63
2024/03/06 06:27:33;;;;;;;0.50;0.50;;;2.40;99.90;;;;;;4385566;32;20176;-63
2024/03/06 06:29:59;;;;;;;1.15;1.05;;;2.40;99.90;;;;;;4402328;32;20537;-63
2024/03/06 06:32:24;;;;;;;1.23;1.12;;;2.50;99.90;;;;;;4403961;32;20769;-63
2024/03/06 06:34:50;;;;;;;0.50;0.50;;;2.50;99.90;;;;;;4401409;32;20085;-63
2024/03/06 06:37:15;;;;;;;1.05;1.05;;;2.50;99.90;;;;;;4409832;32;20581;-62
2024/03/06 06:39:41;;;;;;;7.62;2.10;;;2.60;99.90;;;;;;4407111;32;20139;-63
2024/03/06 06:42:06;;;;;;;0.52;0.52;;;2.60;99.90;;;;;;4403717;32;20546;-61
2024/03/06 06:44:32;;;;;;;0.68;0.68;;;2.80;99.90;;;;;;4405467;32;20101;-62
2024/03/06 06:46:58;;;;;;;0.68;0.68;;;2.80;99.90;;;;;;4403330;32;20093;-62
2024/03/06 06:49:23;;;;;;;1.55;1.45;;;2.80;99.90;;;;;;4398539;32;20131;-64
2024/03/06 06:51:49;;;;;;;0.75;0.75;;;2.90;99.90;;;;;;4398275;32;20530;-64
2024/03/06 06:54:15;;;;;;;1.20;1.00;;;2.90;99.90;;;;;;4400821;32;20088;-64
2024/03/06 06:56:40;;;;;;;0.80;0.80;;;3.00;99.90;;;;;;4384803;32;20797;-64
2024/03/06 06:59:07;;;;;;;1.20;1.02;;;3.00;99.90;;;;;;4387601;32;20254;-63
2024/03/06 07:01:33;;;;;;;0.75;0.75;;;3.10;99.90;;;;;;4373551;32;20581;-62
2024/03/06 07:03:58;;;;;;;1.02;0.93;;;3.10;99.90;;;;;;4384152;32;20245;-63
2024/03/06 07:06:25;;;;;;;0.75;0.55;;;3.20;99.90;;;;;;4375553;32;20619;-64
2024/03/06 07:08:50;;;;;;;1.15;1.00;;;3.30;99.90;;;;;;4380801;32;20439;-63
2024/03/06 07:11:18;;;;;;;0.93;0.93;;;3.30;99.90;;;;;;4389831;32;20645;-64
2024/03/06 07:13:44;;;;;;;1.12;1.12;;;3.40;99.90;;;;;;4388972;32;21069;-63
2024/03/06 07:16:10;;;;;;;0.70;0.70;;;3.50;99.90;;;;;;4389484;32;20118;-63
2024/03/06 07:18:35;;;;;;;1.05;0.95;;;3.40;99.90;;;;;;4389808;32;20793;-64
2024/03/06 07:21:01;;;;;;;2.87;1.15;;;3.50;99.90;;;;;;4376696;32;20155;-63
2024/03/06 07:23:26;;;;;;;19.87;2.72;;;3.60;99.90;;;;;;4380964;32;20113;-64
2024/03/06 07:25:52;;;;;;;1.65;1.02;;;3.60;99.90;;;;;;4379169;32;20198;-64
2024/03/06 07:28:18;;;;;;;0.88;0.88;;;3.70;99.90;;;;;;4357941;32;20410;-65
2024/03/06 07:30:44;;;;;;;0.70;0.70;;;3.70;99.90;;;;;;4375854;32;20538;-65
2024/03/06 07:33:10;;;;;;;1.42;0.60;;;3.80;99.90;;;;;;4387893;32;20110;-63
2024/03/06 07:35:36;;;;;;;1.15;1.02;;;3.90;99.90;;;;;;4386612;32;20101;-64
2024/03/06 07:38:04;;;;;;;8.77;2.85;;;4.00;99.90;;;;;;4382917;32;20097;-64
2024/03/06 07:40:30;;;;;;;0.93;0.93;;;4.00;99.90;;;;;;4380431;32;21962;-65
2024/03/06 07:42:56;;;;;;;0.60;0.60;;;4.10;99.90;;;;;;4383006;32;20211;-63
2024/03/06 07:45:21;;;;;;;0.70;0.70;;;4.10;99.90;;;;;;4382897;32;20147;-65
2024/03/06 07:47:48;;;;;;;0.65;0.65;;;4.20;99.90;;;;;;4374796;32;20350;-64
2024/03/06 07:50:18;;;;;;;1.92;0.88;;;4.30;99.90;;;;;;4376832;32;20109;-66
2024/03/06 07:52:46;;;;;;;0.88;0.88;;;4.30;99.90;;;;;;4372879;32;21012;-65
2024/03/06 07:55:11;;;;;;;1.67;1.33;;;4.40;99.90;;;;;;4369522;32;20084;-66
2024/03/06 07:57:37;;;;;;;0.77;0.77;;;4.50;99.90;;;;;;4370913;32;20268;-64
2024/03/06 08:00:14;;;;;;;1.67;1.30;;;4.60;99.90;;;;;;4373372;32;20135;-63
2024/03/06 08:02:35;;;;;;;1.23;0.90;;;4.60;99.90;;;;;;4365180;32;20695;-64
2024/03/06 08:05:01;;;;;;;0.75;0.75;;;4.70;99.90;;;;;;4367404;32;20160;-63
2024/03/06 08:07:26;;;;;;;1.25;1.15;;;4.70;99.90;;;;;;4377317;32;20390;-65
2024/03/06 08:09:52;;;;;;;0.60;0.60;;;4.80;99.90;;;;;;4369621;32;22804;-65
2024/03/06 08:12:17;;;;;;;1.02;1.02;;;4.90;99.90;;;;;;4365813;32;20619;-64
2024/03/06 08:14:43;;;;;;;1.20;1.10;;;4.90;99.90;;;;;;4369436;32;20143;-64
2024/03/06 08:17:08;;;;;;;4.47;0.93;;;5.10;99.90;;;;;;4363202;32;21143;-64
2024/03/06 08:19:34;;;;;;;0.88;0.88;;;5.10;99.90;;;;;;4378752;32;20196;-63
2024/03/06 08:22:01;;;;;;;8.23;1.80;;;5.20;99.90;;;;;;4372644;32;20880;-64
2024/03/06 08:24:27;;;;;;;0.77;0.77;;;5.20;99.90;;;;;;4372592;32;20113;-63
2024/03/06 08:26:52;;;;;;;0.50;0.50;;;5.40;99.90;;;;;;4372295;32;20089;-64
2024/03/06 08:29:18;;;;;;;1.65;1.10;;;5.50;99.90;;;;;;4356821;32;20106;-64
2024/03/06 08:31:43;;;;;;;1.37;0.90;;;5.70;99.90;;;;;;4376948;32;20185;-64
2024/03/06 08:34:09;;;;;;;3.83;1.35;;;5.90;99.90;;;;;;4377021;32;20106;-63
2024/03/06 08:36:34;;;;;;;1.73;1.45;;;6.10;99.90;;;;;;4380227;32;20093;-63
2024/03/06 08:39:00;;;;;;;1.23;1.05;;;6.10;99.90;;;;;;4375128;32;20161;-64
2024/03/06 08:41:26;;;;;;;2.80;1.23;;;6.10;99.90;;;;;;4381243;32;20280;-64
2024/03/06 08:43:52;;;;;;;0.80;0.80;;;6.10;99.90;;;;;;4389295;32;20147;-64
2024/03/06 08:46:17;;;;;;;19.75;2.62;;;6.10;99.90;;;;;;4389564;32;20263;-64
2024/03/06 08:48:43;;;;;;;5.60;1.05;;;6.10;99.90;;;;;;4377590;32;20131;-65
2024/03/06 08:51:10;;;;;;;2.85;0.80;;;6.30;99.90;;;;;;4377613;32;21311;-64
2024/03/06 08:53:37;;;;;;;0.60;0.60;;;6.40;99.90;;;;;;4375309;32;20121;-65
2024/03/06 08:56:03;;;;;;;8.25;1.33;;;6.50;99.90;;;;;;4374391;32;20122;-65
2024/03/06 08:58:29;;;;;;;21.25;1.33;;;6.70;99.90;;;;;;4368414;32;20573;-65
2024/03/06 09:00:55;;;;;;;1.27;0.98;;;6.70;99.90;;;;;;4377228;32;20102;-64
2024/03/06 09:03:20;;;;;;;0.98;0.82;;;6.70;99.90;;;;;;4377756;32;20077;-65
2024/03/06 09:05:46;;;;;;;0.70;0.70;;;6.70;99.90;;;;;;4381012;32;20101;-65
2024/03/06 09:08:12;;;;;;;0.70;0.70;;;6.90;99.90;;;;;;4381430;32;20077;-65
2024/03/06 09:10:38;;;;;;;0.73;0.73;;;7.00;99.90;;;;;;4381649;32;20147;-65
2024/03/06 09:13:04;;;;;;;1.15;0.68;;;7.10;99.90;;;;;;4371057;32;20766;-64
2024/03/06 09:15:29;;;;;;;1.75;0.95;;;7.10;99.90;;;;;;4375184;32;20206;-63
2024/03/06 09:17:55;;;;;;;1.92;1.17;;;7.10;99.90;;;;;;4376522;32;20098;-64
2024/03/06 09:20:23;;;;;;;0.82;0.82;;;7.20;99.90;;;;;;4370229;32;20172;-64
2024/03/06 09:22:49;;;;;;;0.55;0.55;;;7.40;99.90;;;;;;4371686;32;20930;-64
2024/03/06 09:25:14;;;;;;;0.57;0.57;;;7.60;99.90;;;;;;4372969;32;20233;-63
2024/03/06 09:27:40;;;;;;;1.00;0.60;;;7.70;99.90;;;;;;4369848;32;20084;-63
2024/03/06 09:30:06;;;;;;;0.75;0.75;;;7.80;99.90;;;;;;4366760;32;20101;-62
2024/03/06 09:32:31;;;;;;;2.08;0.82;;;7.90;99.90;;;;;;4390427;32;20093;-63
2024/03/06 09:34:58;;;;;;;0.70;0.70;;;8.00;99.90;;;;;;4385065;32;20647;-63
2024/03/06 09:37:24;;;;;;;0.40;0.40;;;8.30;99.90;;;;;;4376494;32;20458;-63
2024/03/06 09:39:50;;;;;;;0.60;0.60;;;8.20;99.90;;;;;;4373379;32;20097;-64
2024/03/06 09:42:16;;;;;;;0.35;0.35;;;8.20;99.90;;;;;;4388228;32;20553;-65
2024/03/06 09:44:42;;;;;;;0.50;0.50;;;8.20;99.90;;;;;;4389978;32;20523;-65
2024/03/06 09:47:12;;;;;;;0.50;0.50;;;8.20;99.90;;;;;;4380653;32;20448;-65
2024/03/06 09:49:38;;;;;;;1.77;0.75;;;8.20;99.90;;;;;;4379301;32;20210;-65
2024/03/06 09:52:04;;;;;;;0.47;0.47;;;8.50;99.90;;;;;;4378267;32;21267;-64
2024/03/06 09:54:30;;;;;;;0.60;0.60;;;8.50;99.90;;;;;;4387125;32;20738;-64
2024/03/06 09:56:57;;;;;;;0.60;0.60;;;8.30;99.90;;;;;;4380784;32;20945;-64
2024/03/06 09:59:23;;;;;;;0.40;0.40;;;8.40;99.90;;;;;;4372239;32;21311;-64
2024/03/06 10:01:51;;;;;;;0.40;0.40;;;8.70;99.90;;;;;;4384546;32;20129;-64
2024/03/06 10:04:21;;;;;;;1.33;1.17;;;9.00;99.90;;;;;;4380461;32;20104;-66
2024/03/06 10:06:47;;;;;;;0.52;0.52;;;9.20;99.90;;;;;;4378260;32;20143;-64
2024/03/06 10:09:16;;;;;;;0.43;0.43;;;8.80;99.90;;;;;;4380717;32;20172;-64
2024/03/06 10:11:42;;;;;;;0.50;0.50;;;8.70;99.90;;;;;;4375075;32;20649;-65
2024/03/06 10:14:08;;;;;;;1.08;0.60;;;8.90;99.90;;;;;;4388317;32;20560;-65
2024/03/06 10:16:36;;;;;;;0.40;0.40;;;9.00;99.90;;;;;;4383914;32;20122;-64
2024/03/06 10:19:18;;;;;;;1.80;0.85;;;9.00;99.90;;;;;;4387546;32;20207;-66
2024/03/06 10:21:48;;;;;;;0.55;0.55;;;8.90;99.90;;;;;;4357065;32;20252;-67
2024/03/06 10:24:23;;;;;;;0.82;0.80;;;9.00;99.90;;;;;;4382182;32;20101;-66
2024/03/06 10:26:54;;;;;;;2.42;0.47;;;9.40;99.90;;;;;;4368609;32;21553;-67
2024/03/06 10:29:21;;;;;;;1.95;0.95;;;9.50;99.90;;;;;;4372802;32;20186;-65
2024/03/06 10:31:50;;;;;;;0.62;0.62;;;9.80;99.90;;;;;;4366572;32;20494;-66
2024/03/06 10:34:20;;;;;;;0.75;0.75;;;10.20;99.90;;;;;;4375753;32;20106;-67
2024/03/06 10:36:49;;;;;;;1.73;1.10;;;10.30;99.90;;;;;;4380638;32;20826;-67
2024/03/06 10:39:19;;;;;;;1.85;0.60;;;10.50;99.90;;;;;;4372479;32;20805;-66
2024/03/06 10:41:48;;;;;;;0.60;0.60;;;10.50;99.90;;;;;;4380133;32;20081;-65
2024/03/06 10:44:18;;;;;;;0.65;0.65;;;10.80;99.90;;;;;;4365607;32;20832;-66
2024/03/06 10:46:47;;;;;;;1.60;0.60;;;10.70;99.90;;;;;;4386122;32;20070;-66
2024/03/06 10:49:15;;;;;;;0.50;0.50;;;10.40;99.90;;;;;;4366396;32;20081;-66
2024/03/06 10:51:43;;;;;;;0.60;0.60;;;10.30;99.90;;;;;;4379855;32;21097;-65
2024/03/06 10:54:11;;;;;;;1.08;0.98;;;10.60;99.90;;;;;;4392152;32;20085;-64
2024/03/06 10:56:41;;;;;;;1.50;1.25;;;10.70;99.90;;;;;;4394377;32;20229;-62
2024/03/06 10:59:12;;;;;;;1.00;0.93;;;10.70;99.90;;;;;;4382918;32;20612;-64
2024/03/06 11:01:38;;;;;;;;;;;10.50;99.90;;;;;;4375388;32;20086;-61
2024/03/06 11:04:06;;;;;;;1.77;1.00;;;10.40;99.90;;;;;;4381430;32;20083;-65
2024/03/06 11:06:33;;;;;;;0.37;0.37;;;10.20;99.90;;;;;;4383733;32;20089;-63
2024/03/06 11:09:00;;;;;;;2.03;1.00;;;10.00;99.90;;;;;;4385640;32;20101;-63
2024/03/06 11:11:26;;;;;;;1.95;1.23;;;9.70;99.90;;;;;;4386666;32;20110;-63
2024/03/06 11:13:57;;;;;;;0.40;0.40;;;9.50;99.90;;;;;;4386910;32;20125;-64
2024/03/06 11:16:33;;;;;;;0.50;0.45;;;9.40;99.90;;;;;;4379572;32;20942;-65
2024/03/06 11:19:07;;;;;;;1.23;0.73;;;9.40;99.90;;;;;;4378322;32;20231;-65
2024/03/06 11:21:33;;;;;;;1.70;1.05;;;9.30;99.90;;;;;;4383149;32;20097;-65
2024/03/06 11:24:19;;;;;;;0.50;0.50;;;9.30;99.90;;;;;;4384996;32;20172;-66
2024/03/06 11:26:47;;;;;;;0.85;0.85;;;9.50;99.90;;;;;;4385398;32;20105;-63
2024/03/06 11:29:21;;;;;;;2.40;1.40;;;10.00;99.90;;;;;;4402127;32;20414;-62
2024/03/06 11:32:07;;;;;;;0.45;0.45;;;10.60;99.90;;;;;;4382214;32;20142;-60
2024/03/06 11:34:34;;;;;;;0.50;0.50;;;11.10;99.90;;;;;;4382475;32;20098;-64
2024/03/06 11:37:04;;;;;;;0.60;0.60;;;11.60;99.90;;;;;;4397627;32;20096;-62
2024/03/06 11:39:34;;;;;;;1.00;0.70;;;11.50;99.90;;;;;;4382659;32;20180;-62
2024/03/06 11:42:00;;;;;;;1.77;0.60;;;11.00;99.90;;;;;;4398133;32;20414;-65
2024/03/06 11:44:29;;;;;;;0.60;0.60;;;10.60;99.90;;;;;;4389814;32;20203;-65
2024/03/06 11:46:58;;;;;;;0.55;0.55;;;10.40;99.90;;;;;;4378479;32;20524;-66
2024/03/06 11:49:25;;;;;;;7.03;0.68;;;10.10;99.90;;;;;;4394719;32;20133;-64
2024/03/06 11:51:53;;;;;;;0.50;0.50;;;9.70;99.90;;;;;;4387294;32;99811;-66
2024/03/06 11:54:23;;;;;;;0.70;0.70;;;9.70;99.90;;;;;;4382619;32;20086;-64
2024/03/06 11:56:50;;;;;;;4.93;0.90;;;9.60;99.90;;;;;;4352293;32;20082;-65
2024/03/06 11:59:16;;;;;;;1.30;0.60;;;9.90;99.90;;;;;;4365635;32;20086;-62
2024/03/06 12:04:07;;;;;;;1.17;1.10;;;11.80;99.90;;;;;;4376158;32;20548;-64
2024/03/06 12:06:33;;;;;;;1.65;0.95;;;12.00;99.90;;;;;;4383796;32;20250;-65
2024/03/06 12:08:59;;;;;;;1.27;0.73;;;12.40;99.90;;;;;;4364265;32;20200;-65
2024/03/06 12:11:25;;;;;;;0.85;0.85;;;12.80;99.90;;;;;;4366638;32;21056;-66
2024/03/06 12:13:51;;;;;;;3.60;1.83;;;13.30;99.90;;;;;;4368700;32;20093;-63
2024/03/06 12:16:17;;;;;;;2.22;0.95;;;13.00;99.90;;;;;;4374974;32;20225;-64
2024/03/06 12:18:42;;;;;;;1.10;0.65;;;12.70;99.90;;;;;;4372627;32;20097;-64
2024/03/06 12:21:10;;;;;;;6.80;1.05;;;12.10;99.90;;;;;;4383509;32;20560;-65
2024/03/06 12:23:36;;;;;;;1.77;0.75;;;11.40;99.90;;;;;;4368127;32;20077;-65
2024/03/06 12:26:06;;;;;;;126.18;19.52;;;11.10;99.90;;;;;;4385375;32;20190;-63
2024/03/06 12:28:32;;;;;;;4.97;2.50;;;11.80;99.90;;;;;;4365918;32;20105;-64
2024/03/06 12:31:01;;;;;;;0.70;0.68;;;12.50;99.90;;;;;;4368775;32;20543;-64
2024/03/06 12:33:27;;;;;;;0.85;0.73;;;12.90;99.90;;;;;;4386736;32;20073;-64
2024/03/06 12:36:10;;;;;;;0.62;0.62;;;13.70;99.90;;;;;;4371108;32;20102;-64
2024/03/06 12:38:36;;;;;;;1.80;0.70;;;14.00;99.90;;;;;;4390721;32;20100;-65
2024/03/06 12:41:02;;;;;;;0.62;0.62;;;14.50;99.90;;;;;;4371020;32;20275;-65
2024/03/06 12:43:28;;;;;;;0.90;0.77;;;14.30;99.90;;;;;;4378861;32;20169;-64
2024/03/06 12:45:56;;;;;;;3.22;1.40;;;13.30;99.90;;;;;;4369352;32;21359;-64
2024/03/06 12:48:22;;;;;;;23.52;1.12;;;12.90;99.90;;;;;;4375475;32;20097;-64
2024/03/06 12:50:51;;;;;;;0.60;0.60;;;12.50;99.90;;;;;;4386504;32;20122;-63
2024/03/06 12:53:18;;;;;;;1.08;0.98;;;12.10;99.90;;;;;;4393742;32;20093;-66